createdAt,value
2022-10-26T00:00:15.001Z,1.00
2022-10-26T00:02:44.959Z,1.00
2022-10-26T00:05:15.442Z,1.00
2022-10-26T00:07:50.355Z,1.00
2022-10-26T00:10:21.994Z,1.00
2022-10-26T00:12:53.466Z,1.00
2022-10-26T00:15:24.537Z,1.00
2022-10-26T00:17:54.545Z,1.00
2022-10-26T00:20:24.905Z,1.00
2022-10-26T00:22:57.395Z,1.00
2022-10-26T00:25:28.614Z,1.00
2022-10-26T00:28:00.220Z,1.00
2022-10-26T00:30:31.287Z,1.00
2022-10-26T00:33:01.244Z,1.00
2022-10-26T00:35:45.644Z,1.00
2022-10-26T00:38:19.273Z,1.00
2022-10-26T00:43:42.496Z,1.00
2022-10-26T00:46:16.301Z,1.00
2022-10-26T00:48:49.623Z,1.00
2022-10-26T00:51:27.236Z,1.00
2022-10-26T00:53:59.984Z,1.00
2022-10-26T00:56:31.270Z,1.00
2022-10-26T00:59:05.607Z,1.00
2022-10-26T01:01:39.102Z,1.00
2022-10-26T01:04:09.840Z,1.00
2022-10-26T01:06:41.167Z,1.00
2022-10-26T01:09:15.209Z,1.00
2022-10-26T01:11:45.153Z,1.00
2022-10-26T01:14:19.216Z,1.00
2022-10-26T01:20:39.355Z,1.00
2022-10-26T01:23:14.525Z,1.00
2022-10-26T01:26:20.408Z,1.00
2022-10-26T01:29:22.891Z,1.00
2022-10-26T01:32:01.319Z,1.00
2022-10-26T01:34:37.077Z,1.00
2022-10-26T01:37:11.944Z,1.00
2022-10-26T01:39:48.046Z,1.00
2022-10-26T01:42:20.536Z,1.00
2022-10-26T01:44:56.321Z,1.00
2022-10-26T01:47:32.189Z,1.00
2022-10-26T01:50:05.470Z,1.00
2022-10-26T01:52:35.809Z,1.00
2022-10-26T01:55:09.901Z,1.00
2022-10-26T01:57:41.346Z,1.00
2022-10-26T02:00:14.817Z,1.00
2022-10-26T02:03:04.508Z,1.00
2022-10-26T02:05:55.591Z,1.00
2022-10-26T02:08:38.687Z,1.00
2022-10-26T02:11:21.041Z,1.00
2022-10-26T02:13:58.595Z,1.00
2022-10-26T02:16:33.232Z,1.00
2022-10-26T02:19:15.747Z,1.00
2022-10-26T02:21:49.928Z,1.00
2022-10-26T02:24:21.043Z,4.80
2022-10-26T02:26:52.774Z,13.60
2022-10-26T02:29:26.765Z,16.20
2022-10-26T02:31:57.739Z,16.00
2022-10-26T02:34:31.682Z,18.90
2022-10-26T02:37:03.801Z,22.70
2022-10-26T02:39:36.989Z,17.10
2022-10-26T02:42:10.585Z,13.80
2022-10-26T02:44:45.887Z,14.50
2022-10-26T02:47:16.537Z,24.80
2022-10-26T02:49:50.068Z,26.90
2022-10-26T02:52:26.127Z,29.40
2022-10-26T02:55:03.433Z,32.40
2022-10-26T02:57:39.748Z,35.40
2022-10-26T03:00:12.865Z,45.70
2022-10-26T03:02:47.652Z,48.60
2022-10-26T03:05:26.033Z,48.30
2022-10-26T03:07:56.680Z,42.70
2022-10-26T03:10:27.325Z,40.70
2022-10-26T03:12:57.263Z,45.10
2022-10-26T03:15:27.823Z,43.80
2022-10-26T03:17:57.718Z,45.70
2022-10-26T03:20:30.851Z,46.70
2022-10-26T03:23:00.707Z,49.40
2022-10-26T03:25:30.741Z,47.70
2022-10-26T03:28:01.678Z,64.50
2022-10-26T03:30:34.132Z,65.60
2022-10-26T03:33:04.003Z,59.40
2022-10-26T03:35:37.095Z,58.60
2022-10-26T03:38:06.953Z,50.10
2022-10-26T03:40:37.863Z,43.40
2022-10-26T03:43:07.774Z,43.70
2022-10-26T03:45:38.469Z,43.40
2022-10-26T03:48:08.760Z,51.30
2022-10-26T03:50:42.056Z,62.30
2022-10-26T03:53:11.931Z,91.10
2022-10-26T03:55:42.830Z,99.30
2022-10-26T03:58:12.768Z,99.90
2022-10-26T04:00:43.054Z,99.90
2022-10-26T04:03:12.905Z,98.80
2022-10-26T04:05:45.934Z,96.90
2022-10-26T04:08:15.838Z,91.00
2022-10-26T04:10:49.071Z,73.30
2022-10-26T04:13:18.969Z,62.40
2022-10-26T04:15:49.230Z,47.60
2022-10-26T04:18:19.450Z,30.40
2022-10-26T04:20:52.284Z,20.50
2022-10-26T04:23:22.856Z,16.90
2022-10-26T04:25:52.764Z,8.50
2022-10-26T04:28:22.872Z,1.00
2022-10-26T04:30:53.369Z,1.00
2022-10-26T04:33:23.249Z,1.00
2022-10-26T04:35:56.502Z,1.00
2022-10-26T04:38:26.394Z,1.00
2022-10-26T04:40:57.386Z,1.00
2022-10-26T04:43:27.355Z,1.00
2022-10-26T04:45:59.364Z,1.00
2022-10-26T04:48:29.350Z,1.00
2022-10-26T04:51:05.159Z,1.00
2022-10-26T04:53:35.064Z,1.00
2022-10-26T04:56:06.311Z,1.00
2022-10-26T04:58:36.189Z,1.00
2022-10-26T05:01:06.945Z,1.00
2022-10-26T05:03:37.427Z,1.00
2022-10-26T05:06:10.850Z,1.00
2022-10-26T05:08:40.748Z,1.00
2022-10-26T05:11:11.398Z,1.00
2022-10-26T05:13:41.294Z,1.00
2022-10-26T05:16:11.950Z,1.00
2022-10-26T05:18:41.850Z,1.00
2022-10-26T05:21:19.687Z,1.00
2022-10-26T05:23:55.327Z,1.00
2022-10-26T05:26:27.169Z,1.00
2022-10-26T05:28:57.251Z,1.00
2022-10-26T05:31:27.855Z,1.00
2022-10-26T05:33:58.154Z,1.00
2022-10-26T05:36:30.978Z,1.00
2022-10-26T05:39:01.474Z,1.00
2022-10-26T05:41:31.426Z,1.00
2022-10-26T05:44:01.534Z,1.00
2022-10-26T05:46:31.938Z,1.00
2022-10-26T05:49:02.079Z,1.00
2022-10-26T05:51:37.308Z,1.00
2022-10-26T05:54:11.504Z,1.00
2022-10-26T05:56:45.228Z,1.00
2022-10-26T05:59:17.873Z,1.00
2022-10-26T06:02:00.685Z,1.00
2022-10-26T06:04:38.997Z,1.00
2022-10-26T06:07:17.555Z,1.00
2022-10-26T06:09:49.195Z,1.00
2022-10-26T06:12:20.620Z,1.00
2022-10-26T06:14:51.503Z,1.00
2022-10-26T06:17:33.250Z,1.00
2022-10-26T06:20:17.556Z,1.00
2022-10-26T06:23:01.935Z,1.00
2022-10-26T06:25:45.157Z,1.00
2022-10-26T06:28:24.940Z,1.00
2022-10-26T06:30:55.872Z,1.00
2022-10-26T06:33:30.629Z,1.00
2022-10-26T06:36:10.330Z,1.00
2022-10-26T06:38:46.019Z,1.00
2022-10-26T06:41:19.118Z,1.00
2022-10-26T06:43:49.783Z,1.00
2022-10-26T06:46:32.093Z,1.00
2022-10-26T06:49:09.982Z,1.00
2022-10-26T06:51:50.018Z,1.00
2022-10-26T06:54:27.483Z,1.00
2022-10-26T06:57:03.938Z,1.00
2022-10-26T06:59:40.823Z,1.00
2022-10-26T07:02:12.714Z,1.00
2022-10-26T07:04:47.159Z,1.00
2022-10-26T07:07:20.972Z,1.00
2022-10-26T07:09:53.850Z,1.00
2022-10-26T07:12:25.469Z,1.00
2022-10-26T07:14:58.182Z,1.00
2022-10-26T07:17:30.978Z,1.00
2022-10-26T07:20:01.016Z,1.00
2022-10-26T07:22:38.834Z,1.00
2022-10-26T07:25:13.678Z,1.00
2022-10-26T07:27:43.564Z,1.00
2022-10-26T07:30:19.827Z,1.00
2022-10-26T07:32:52.650Z,1.00
2022-10-26T07:35:23.342Z,1.00
2022-10-26T07:37:53.323Z,1.00
2022-10-26T07:40:27.084Z,1.00
2022-10-26T07:43:00.147Z,1.00
2022-10-26T07:45:31.799Z,1.00
2022-10-26T07:48:07.047Z,1.00
2022-10-26T07:50:38.077Z,1.00
2022-10-26T07:53:08.052Z,1.00
2022-10-26T07:58:11.679Z,1.00
2022-10-26T08:00:43.083Z,1.00
2022-10-26T08:03:13.044Z,1.00
2022-10-26T08:05:43.192Z,1.00
2022-10-26T08:08:13.694Z,1.00
2022-10-26T08:10:49.796Z,1.00
2022-10-26T08:13:19.764Z,1.00
2022-10-26T08:15:50.273Z,1.00
2022-10-26T08:18:20.159Z,1.00
2022-10-26T08:20:50.419Z,1.00
2022-10-26T08:23:20.367Z,1.00
2022-10-26T08:25:53.036Z,1.00
2022-10-26T08:28:22.998Z,1.00
2022-10-26T08:30:53.431Z,1.00
2022-10-26T08:33:23.809Z,1.00
2022-10-26T08:35:59.340Z,1.00
2022-10-26T08:38:29.853Z,1.00
2022-10-26T08:41:09.403Z,1.00
2022-10-26T08:43:43.441Z,1.00
2022-10-26T08:46:19.269Z,1.00
2022-10-26T08:48:52.516Z,1.00
2022-10-26T08:51:26.496Z,1.00
2022-10-26T08:54:01.908Z,1.00
2022-10-26T08:56:44.891Z,1.00
2022-10-26T08:59:25.448Z,1.00
2022-10-26T09:01:56.293Z,1.00
2022-10-26T09:04:30.500Z,1.00
2022-10-26T09:07:11.058Z,1.00
2022-10-26T09:09:49.719Z,1.00
2022-10-26T09:12:31.028Z,1.00
2022-10-26T09:15:14.828Z,1.00
2022-10-26T09:17:56.269Z,1.00
2022-10-26T09:21:06.059Z,1.00
2022-10-26T09:23:55.515Z,1.00
2022-10-26T09:26:34.509Z,1.00
2022-10-26T09:29:13.865Z,1.00
2022-10-26T09:31:46.233Z,1.00
2022-10-26T09:34:24.462Z,1.00
2022-10-26T09:36:59.230Z,1.00
2022-10-26T09:39:39.194Z,1.00
2022-10-26T09:42:19.292Z,99.90
2022-10-26T09:44:57.933Z,1.00
2022-10-26T09:47:37.848Z,99.90
2022-10-26T09:50:19.403Z,1.00
2022-10-26T09:52:49.722Z,99.90
2022-10-26T09:55:21.395Z,99.90
2022-10-26T09:57:56.353Z,99.90
2022-10-26T10:00:31.279Z,99.90
2022-10-26T10:03:01.782Z,99.90
2022-10-26T10:08:26.046Z,99.90
2022-10-26T10:11:08.602Z,99.90
2022-10-26T10:13:41.023Z,99.90
2022-10-26T10:16:16.878Z,99.90
2022-10-26T10:18:56.666Z,99.90
2022-10-26T10:21:40.557Z,99.90
2022-10-26T10:24:26.653Z,99.90
2022-10-26T10:27:02.803Z,99.90
2022-10-26T10:29:35.143Z,99.90
2022-10-26T10:32:17.859Z,99.90
2022-10-26T10:34:47.852Z,99.90
2022-10-26T10:37:29.184Z,99.90
2022-10-26T10:40:01.390Z,99.90
2022-10-26T10:42:35.751Z,99.90
2022-10-26T10:45:08.389Z,99.90
2022-10-26T10:47:43.216Z,99.90
2022-10-26T10:50:22.534Z,99.90
2022-10-26T10:52:52.876Z,99.90
2022-10-26T10:55:24.809Z,99.90
2022-10-26T10:58:18.139Z,99.90
2022-10-26T11:00:51.892Z,99.90
2022-10-26T11:03:52.773Z,99.90
2022-10-26T11:06:28.086Z,99.90
2022-10-26T11:09:02.352Z,99.90
2022-10-26T11:11:41.788Z,99.90
2022-10-26T11:14:19.842Z,99.90
2022-10-26T11:16:54.626Z,99.90
2022-10-26T11:19:31.911Z,99.90
2022-10-26T11:22:02.796Z,99.90
2022-10-26T11:24:38.449Z,99.90
2022-10-26T11:27:18.601Z,99.90
2022-10-26T11:29:57.013Z,99.90
2022-10-26T11:32:31.606Z,99.90
2022-10-26T11:35:13.851Z,99.90
2022-10-26T11:37:52.968Z,99.90
2022-10-26T11:40:31.823Z,99.90
2022-10-26T11:43:13.556Z,99.90
2022-10-26T11:45:48.530Z,99.90
2022-10-26T11:48:23.753Z,99.90
2022-10-26T11:50:59.332Z,99.90
2022-10-26T11:53:34.134Z,99.90
2022-10-26T11:56:06.931Z,99.90
2022-10-26T11:58:37.032Z,99.90
2022-10-26T12:01:13.778Z,99.90
2022-10-26T12:03:49.719Z,99.90
2022-10-26T12:06:28.155Z,99.90
2022-10-26T12:09:05.072Z,99.90
2022-10-26T12:11:45.320Z,99.90
2022-10-26T12:14:24.509Z,99.90
2022-10-26T12:17:04.086Z,99.90
2022-10-26T12:19:42.404Z,99.90
2022-10-26T12:22:19.204Z,99.90
2022-10-26T12:24:50.378Z,99.90
2022-10-26T12:27:35.614Z,99.90
2022-10-26T12:30:27.379Z,99.90
2022-10-26T12:32:58.584Z,99.90
2022-10-26T12:35:40.630Z,99.90
2022-10-26T12:38:50.387Z,99.90
2022-10-26T12:41:27.733Z,99.90
2022-10-26T12:44:27.844Z,99.90
2022-10-26T12:46:58.095Z,99.90
2022-10-26T12:50:00.601Z,99.90
2022-10-26T12:52:47.521Z,99.90
2022-10-26T12:55:45.929Z,99.90
2022-10-26T12:58:46.590Z,99.90
2022-10-26T13:01:46.990Z,99.90
2022-10-26T13:04:37.898Z,99.90
2022-10-26T13:07:21.774Z,99.90
2022-10-26T13:10:04.149Z,99.90
2022-10-26T13:12:49.948Z,99.90
2022-10-26T13:15:29.008Z,99.90
2022-10-26T13:18:06.045Z,99.90
2022-10-26T13:20:38.280Z,99.90
2022-10-26T13:23:22.895Z,99.90
2022-10-26T13:26:07.155Z,99.90
2022-10-26T13:28:47.967Z,99.90
2022-10-26T13:31:51.569Z,99.90
2022-10-26T13:34:25.820Z,99.90
2022-10-26T13:37:04.594Z,99.90
2022-10-26T13:39:38.589Z,99.90
2022-10-26T13:42:10.859Z,99.90
2022-10-26T13:44:46.081Z,99.90
2022-10-26T13:47:25.186Z,99.90
2022-10-26T13:50:03.332Z,99.90
2022-10-26T13:52:38.312Z,99.90
2022-10-26T13:55:12.519Z,99.90
2022-10-26T13:57:47.034Z,99.90
2022-10-26T14:00:22.002Z,99.90
2022-10-26T14:02:53.042Z,99.90
2022-10-26T14:05:26.291Z,99.90
2022-10-26T14:08:00.230Z,99.90
2022-10-26T14:10:32.093Z,99.90
2022-10-26T14:13:03.747Z,99.90
2022-10-26T14:15:35.835Z,99.90
2022-10-26T14:18:07.949Z,99.90
2022-10-26T14:20:40.581Z,99.90
2022-10-26T14:23:28.625Z,99.90
2022-10-26T14:25:59.525Z,99.90
2022-10-26T14:28:31.840Z,99.90
2022-10-26T14:31:18.152Z,99.90
2022-10-26T14:33:50.303Z,99.90
2022-10-26T14:36:26.534Z,99.90
2022-10-26T14:39:01.226Z,99.90
2022-10-26T14:41:32.610Z,99.90
2022-10-26T14:44:03.406Z,99.90
2022-10-26T14:46:38.324Z,99.90
2022-10-26T14:49:08.300Z,99.90
2022-10-26T14:51:41.292Z,99.90
2022-10-26T14:54:23.258Z,99.90
2022-10-26T14:56:54.258Z,99.90
2022-10-26T14:59:28.352Z,99.90
2022-10-26T15:02:00.204Z,99.90
2022-10-26T15:04:37.026Z,99.90
2022-10-26T15:07:23.051Z,99.90
2022-10-26T15:09:54.192Z,99.90
2022-10-26T15:12:31.957Z,99.90
2022-10-26T15:15:12.536Z,99.90
2022-10-26T15:17:45.207Z,99.90
2022-10-26T15:20:20.464Z,99.90
2022-10-26T15:22:58.225Z,1.00
2022-10-26T15:25:31.063Z,1.00
2022-10-26T15:28:13.052Z,1.00
2022-10-26T15:30:42.997Z,1.00
2022-10-26T15:33:24.511Z,1.00
2022-10-26T15:36:06.690Z,1.00
2022-10-26T15:38:39.902Z,1.00
2022-10-26T15:41:18.689Z,1.00
2022-10-26T15:43:52.126Z,1.00
2022-10-26T15:46:23.009Z,1.00
2022-10-26T15:48:58.887Z,1.00
2022-10-26T15:51:30.455Z,1.00
2022-10-26T15:54:05.058Z,1.00
2022-10-26T15:56:35.874Z,1.00
2022-10-26T15:59:07.791Z,1.00
2022-10-26T16:01:38.218Z,1.00
2022-10-26T16:04:08.313Z,1.00
2022-10-26T16:06:39.527Z,1.00
2022-10-26T16:09:15.912Z,1.00
2022-10-26T16:11:46.649Z,1.00
2022-10-26T16:14:16.529Z,1.00
2022-10-26T16:16:46.553Z,1.00
2022-10-26T16:19:30.237Z,1.00
2022-10-26T16:22:02.117Z,1.00
2022-10-26T16:24:35.598Z,1.00
2022-10-26T16:27:05.891Z,1.00
2022-10-26T16:29:37.446Z,1.00
2022-10-26T16:32:08.173Z,1.00
2022-10-26T16:34:38.447Z,1.00
2022-10-26T16:37:08.912Z,1.00
2022-10-26T16:39:41.485Z,1.00
2022-10-26T16:42:11.881Z,1.00
2022-10-26T16:44:41.831Z,1.00
2022-10-26T16:47:12.674Z,1.00
2022-10-26T16:49:43.506Z,1.00
2022-10-26T16:52:14.522Z,1.00
2022-10-26T16:54:47.187Z,1.00
2022-10-26T16:57:18.216Z,1.00
2022-10-26T16:59:48.133Z,1.00
2022-10-26T17:02:19.119Z,1.00
2022-10-26T17:04:49.313Z,1.00
2022-10-26T17:07:19.728Z,1.00
2022-10-26T17:09:53.385Z,1.00
2022-10-26T17:12:23.811Z,1.00
2022-10-26T17:14:53.814Z,1.00
2022-10-26T17:17:24.412Z,1.00
2022-10-26T17:19:54.288Z,1.00
2022-10-26T17:22:24.741Z,1.00
2022-10-26T17:24:57.325Z,1.00
2022-10-26T17:27:28.219Z,1.00
2022-10-26T17:29:58.106Z,1.00
2022-10-26T17:32:28.754Z,1.00
2022-10-26T17:34:58.618Z,1.00
2022-10-26T17:40:01.708Z,1.00
2022-10-26T17:42:31.784Z,1.00
2022-10-26T17:45:01.676Z,1.00
2022-10-26T17:47:31.909Z,1.00
2022-10-26T17:50:03.488Z,1.00
2022-10-26T17:52:33.937Z,1.00
2022-10-26T17:55:06.909Z,1.00
2022-10-26T17:57:37.319Z,1.00
2022-10-26T18:00:08.413Z,1.00
2022-10-26T18:02:44.059Z,1.00
2022-10-26T18:05:14.281Z,1.00
2022-10-26T18:07:44.989Z,1.00
2022-10-26T18:10:37.084Z,1.00
2022-10-26T18:13:07.890Z,1.00
2022-10-26T18:15:38.806Z,1.00
2022-10-26T18:18:08.798Z,1.00
2022-10-26T18:20:38.746Z,1.00
2022-10-26T18:23:09.274Z,1.00
2022-10-26T18:25:41.835Z,1.00
2022-10-26T18:28:12.983Z,1.00
2022-10-26T18:30:42.874Z,1.00
2022-10-26T18:33:13.395Z,1.00
2022-10-26T18:35:43.881Z,1.00
2022-10-26T18:38:14.637Z,1.00
2022-10-26T18:40:50.131Z,1.00
2022-10-26T18:43:21.312Z,1.00
2022-10-26T18:45:51.260Z,1.00
2022-10-26T18:48:22.439Z,1.00
2022-10-26T18:50:52.439Z,1.00
2022-10-26T18:53:23.555Z,1.00
2022-10-26T18:55:56.016Z,1.00
2022-10-26T18:58:27.271Z,1.00
2022-10-26T19:00:57.276Z,1.00
2022-10-26T19:03:27.647Z,1.00
2022-10-26T19:05:57.512Z,1.00
2022-10-26T19:08:28.142Z,1.00
2022-10-26T19:11:05.857Z,1.00
2022-10-26T19:13:36.841Z,1.00
2022-10-26T19:16:16.921Z,1.00
2022-10-26T19:18:56.123Z,1.00
2022-10-26T19:21:28.528Z,1.00
2022-10-26T19:23:59.761Z,1.00
2022-10-26T19:26:39.856Z,1.00
2022-10-26T19:29:15.858Z,1.00
2022-10-26T19:31:47.861Z,1.00
2022-10-26T19:34:19.824Z,1.00
2022-10-26T19:36:53.161Z,1.00
2022-10-26T19:39:24.595Z,1.00
2022-10-26T19:41:58.133Z,1.00
2022-10-26T19:44:29.293Z,1.00
2022-10-26T19:47:00.506Z,1.00
2022-10-26T19:49:30.496Z,1.00
2022-10-26T19:52:03.521Z,1.00
2022-10-26T19:54:36.726Z,1.00
2022-10-26T19:57:10.071Z,1.00
2022-10-26T19:59:39.956Z,1.00
2022-10-26T20:02:11.457Z,1.00
2022-10-26T20:04:41.716Z,5.40
2022-10-26T20:07:14.007Z,6.80
2022-10-26T20:09:44.498Z,1.00
2022-10-26T20:12:19.777Z,1.00
2022-10-26T20:14:49.694Z,1.00
2022-10-26T20:17:23.958Z,1.00
2022-10-26T20:19:57.141Z,1.00
2022-10-26T20:22:28.251Z,1.00
2022-10-26T20:24:58.182Z,1.00
2022-10-26T20:27:35.478Z,1.00
2022-10-26T20:30:07.934Z,1.00
2022-10-26T20:32:38.279Z,1.00
2022-10-26T20:35:09.554Z,1.00
2022-10-26T20:37:41.440Z,1.20
2022-10-26T20:40:14.316Z,10.60
2022-10-26T20:45:38.449Z,24.40
2022-10-26T20:48:09.888Z,30.30
2022-10-26T20:50:40.688Z,48.20
2022-10-26T20:53:15.333Z,57.80
2022-10-26T20:55:49.991Z,67.00
2022-10-26T20:58:37.794Z,81.60
2022-10-26T21:01:12.548Z,91.60
2022-10-26T21:03:42.879Z,95.80
2022-10-26T21:06:15.104Z,96.80
2022-10-26T21:08:46.757Z,97.20
2022-10-26T21:11:17.078Z,95.40
2022-10-26T21:13:51.192Z,94.10
2022-10-26T21:16:24.673Z,94.80
2022-10-26T21:18:54.941Z,93.90
2022-10-26T21:21:25.257Z,82.30
2022-10-26T21:23:55.101Z,64.40
2022-10-26T21:26:25.246Z,38.50
2022-10-26T21:28:57.899Z,27.10
2022-10-26T21:31:27.901Z,22.40
2022-10-26T21:33:58.392Z,12.70
2022-10-26T21:36:30.232Z,1.00
2022-10-26T21:39:00.110Z,1.00
2022-10-26T21:41:30.625Z,1.00
2022-10-26T21:44:22.110Z,1.00
2022-10-26T21:46:56.135Z,1.00
2022-10-26T21:49:26.007Z,16.30
2022-10-26T21:52:19.867Z,24.40
2022-10-26T21:54:49.769Z,51.50
2022-10-26T21:57:23.090Z,55.20
2022-10-26T21:59:56.458Z,55.10
2022-10-26T22:02:35.861Z,65.40
2022-10-26T22:05:17.983Z,64.90
2022-10-26T22:07:49.292Z,38.40
2022-10-26T22:10:19.764Z,18.90
2022-10-26T22:12:50.152Z,6.30
2022-10-26T22:15:22.600Z,4.60
2022-10-26T22:17:53.589Z,7.40
2022-10-26T22:20:23.662Z,11.80
2022-10-26T22:22:54.515Z,7.40
2022-10-26T22:25:25.388Z,5.90
2022-10-26T22:27:56.463Z,1.00
2022-10-26T22:30:29.100Z,1.00
2022-10-26T22:33:03.212Z,1.00
2022-10-26T22:35:33.286Z,1.00
2022-10-26T22:38:03.447Z,1.00
2022-10-26T22:40:33.259Z,1.00
2022-10-26T22:43:03.671Z,1.00
2022-10-26T22:45:36.468Z,1.00
2022-10-26T22:50:40.379Z,1.00
2022-10-26T22:53:10.778Z,1.00
2022-10-26T22:55:43.544Z,1.00
2022-10-26T22:58:14.423Z,1.00
2022-10-26T23:00:50.860Z,1.00
2022-10-26T23:03:21.415Z,1.00
2022-10-26T23:05:51.806Z,1.00
2022-10-26T23:08:22.612Z,1.00
2022-10-26T23:10:54.368Z,1.00
2022-10-26T23:13:25.911Z,1.00
2022-10-26T23:15:59.474Z,1.00
2022-10-26T23:18:33.560Z,1.00
2022-10-26T23:21:05.361Z,1.00
2022-10-26T23:23:35.689Z,1.00
2022-10-26T23:26:07.243Z,1.00
2022-10-26T23:28:38.261Z,1.00
2022-10-26T23:31:16.141Z,1.00
2022-10-26T23:33:47.325Z,1.00
2022-10-26T23:36:17.250Z,1.00
2022-10-26T23:38:47.817Z,1.00
2022-10-26T23:41:18.460Z,1.00
2022-10-26T23:43:49.110Z,1.00
2022-10-26T23:46:21.883Z,1.00
2022-10-26T23:48:52.474Z,1.00
2022-10-26T23:51:22.538Z,1.00
2022-10-26T23:53:53.517Z,1.00
2022-10-26T23:56:23.542Z,1.00
2022-10-26T23:58:53.856Z,1.00
